createdAt,value
2019-04-05T00:01:41.065Z,98.90
2019-04-05T00:04:10.796Z,98.70
2019-04-05T00:06:40.544Z,98.70
2019-04-05T00:09:10.204Z,98.60
2019-04-05T00:11:40.060Z,98.60
2019-04-05T00:14:10.728Z,98.50
2019-04-05T00:16:42.837Z,98.50
2019-04-05T00:19:13.437Z,98.50
2019-04-05T00:21:44.093Z,98.60
2019-04-05T00:24:15.599Z,98.70
2019-04-05T00:26:47.439Z,98.80
2019-04-05T00:29:17.405Z,98.80
2019-04-05T00:31:48.892Z,98.70
2019-04-05T00:34:20.260Z,98.70
2019-04-05T00:36:49.961Z,98.70
2019-04-05T00:39:20.720Z,98.60
2019-04-05T00:41:50.271Z,98.60
2019-04-05T00:44:23.226Z,98.50
2019-04-05T00:46:53.545Z,98.50
2019-04-05T00:49:24.372Z,98.50
2019-04-05T00:51:55.492Z,98.50
2019-04-05T00:54:26.160Z,98.40
2019-04-05T00:56:55.914Z,98.50
2019-04-05T00:59:30.512Z,98.50
2019-04-05T01:02:01.737Z,98.50
2019-04-05T01:04:31.428Z,98.50
2019-04-05T01:07:03.814Z,98.50
2019-04-05T01:09:34.792Z,98.50
2019-04-05T01:12:06.812Z,98.50
2019-04-05T01:14:37.332Z,98.50
2019-04-05T01:17:08.340Z,98.50
2019-04-05T01:19:41.056Z,98.50
2019-04-05T01:22:13.618Z,98.50
2019-04-05T01:24:45.302Z,98.60
2019-04-05T01:27:16.855Z,98.60
2019-04-05T01:29:46.651Z,98.60
2019-04-05T01:32:17.565Z,98.60
2019-04-05T01:34:47.300Z,98.50
2019-04-05T01:37:16.874Z,98.50
2019-04-05T01:39:46.608Z,98.50
2019-04-05T01:42:19.062Z,98.50
2019-04-05T01:44:48.632Z,98.70
2019-04-05T01:47:20.623Z,99.00
2019-04-05T01:49:50.268Z,99.20
2019-04-05T01:52:21.832Z,99.10
2019-04-05T01:54:54.450Z,98.90
2019-04-05T01:57:25.096Z,98.70
2019-04-05T01:59:54.832Z,98.60
2019-04-05T02:02:24.408Z,98.60
2019-04-05T02:04:54.524Z,98.50
2019-04-05T02:07:24.339Z,98.60
2019-04-05T02:09:54.229Z,98.60
2019-04-05T02:12:24.313Z,99.10
2019-04-05T02:14:57.914Z,99.30
2019-04-05T02:17:27.865Z,99.30
2019-04-05T02:19:59.216Z,99.30
2019-04-05T02:22:28.880Z,99.10
2019-04-05T02:24:59.860Z,99.00
2019-04-05T02:27:29.524Z,99.10
2019-04-05T02:29:59.380Z,99.30
2019-04-05T02:32:29.659Z,99.10
2019-04-05T02:34:57.546Z,98.90
2019-04-05T02:37:27.485Z,98.80
2019-04-05T02:39:57.097Z,98.70
2019-04-05T02:42:27.624Z,98.70
2019-04-05T02:44:58.687Z,98.60
2019-04-05T02:47:29.719Z,98.60
2019-04-05T02:50:00.033Z,98.70
2019-04-05T02:52:30.448Z,98.80
2019-04-05T02:55:00.539Z,99.00
2019-04-05T02:57:32.020Z,99.20
2019-04-05T03:00:02.423Z,99.40
2019-04-05T03:02:37.154Z,99.00
2019-04-05T03:05:10.485Z,98.80
2019-04-05T03:07:40.150Z,98.80
2019-04-05T03:10:10.220Z,98.70
2019-04-05T03:12:41.249Z,98.60
2019-04-05T03:15:11.789Z,98.60
2019-04-05T03:17:41.946Z,98.60
2019-04-05T03:20:12.136Z,98.80
2019-04-05T03:22:42.215Z,98.70
2019-04-05T03:25:13.633Z,98.70
2019-04-05T03:27:44.056Z,98.70
2019-04-05T03:30:14.825Z,98.70
2019-04-05T03:32:45.277Z,98.60
2019-04-05T03:35:18.597Z,98.60
2019-04-05T03:37:48.803Z,98.60
2019-04-05T03:40:19.054Z,98.70
2019-04-05T03:42:49.336Z,98.90
2019-04-05T03:45:19.058Z,98.80
2019-04-05T03:47:50.068Z,98.90
2019-04-05T03:50:21.450Z,99.00
2019-04-05T03:52:51.325Z,99.00
2019-04-05T03:55:21.272Z,99.10
2019-04-05T03:57:54.027Z,98.90
2019-04-05T04:00:23.662Z,98.80
2019-04-05T04:02:55.324Z,98.60
2019-04-05T04:05:27.337Z,98.70
2019-04-05T04:07:58.834Z,98.70
2019-04-05T04:10:30.378Z,98.70
2019-04-05T04:13:01.366Z,98.70
2019-04-05T04:15:31.444Z,98.70
2019-04-05T04:18:01.422Z,98.70
2019-04-05T04:20:39.387Z,98.70
2019-04-05T04:23:10.390Z,98.80
2019-04-05T04:25:41.653Z,98.70
2019-04-05T04:28:12.553Z,98.80
2019-04-05T04:30:42.388Z,98.80
2019-04-05T04:33:13.919Z,98.90
2019-04-05T04:35:43.628Z,98.70
2019-04-05T04:38:14.921Z,98.80
2019-04-05T04:40:44.791Z,98.80
2019-04-05T04:43:15.918Z,99.00
2019-04-05T04:45:47.256Z,99.30
2019-04-05T04:48:17.328Z,99.20
2019-04-05T04:50:47.729Z,99.30
2019-04-05T04:53:18.826Z,99.40
2019-04-05T04:55:51.045Z,99.20
2019-04-05T04:58:20.737Z,99.20
2019-04-05T05:00:50.904Z,98.90
2019-04-05T05:03:22.185Z,98.80
2019-04-05T05:05:53.443Z,98.80
2019-04-05T05:08:23.375Z,98.80
2019-04-05T05:10:53.025Z,98.80
2019-04-05T05:13:24.262Z,98.80
2019-04-05T05:15:54.328Z,98.80
2019-04-05T05:18:25.378Z,98.80
2019-04-05T05:20:57.601Z,98.90
2019-04-05T05:23:27.239Z,98.80
2019-04-05T05:25:58.048Z,98.70
2019-04-05T05:28:27.816Z,98.80
2019-04-05T05:30:57.800Z,98.70
2019-04-05T05:33:30.814Z,98.70
2019-04-05T05:36:00.539Z,98.70
2019-04-05T05:38:30.469Z,98.80
2019-04-05T05:41:00.018Z,98.80
2019-04-05T05:43:31.381Z,98.80
2019-04-05T05:46:02.200Z,98.80
2019-04-05T05:48:32.161Z,98.80
2019-04-05T05:51:02.148Z,98.70
2019-04-05T05:53:32.443Z,98.70
2019-04-05T05:56:02.005Z,98.50
2019-04-05T05:58:33.545Z,98.50
2019-04-05T06:01:04.374Z,98.50
2019-04-05T06:03:34.605Z,98.50
2019-04-05T06:06:04.978Z,98.50
2019-04-05T06:08:36.471Z,98.40
2019-04-05T06:11:08.099Z,98.50
2019-04-05T06:13:37.861Z,98.40
2019-04-05T06:16:09.239Z,98.40
2019-04-05T06:18:43.695Z,98.50
2019-04-05T06:21:16.424Z,98.50
2019-04-05T06:23:46.221Z,98.40
2019-04-05T06:26:15.775Z,98.30
2019-04-05T06:28:46.581Z,98.10
2019-04-05T06:31:16.531Z,98.00
2019-04-05T06:33:46.271Z,97.90
2019-04-05T06:36:15.980Z,97.90
2019-04-05T06:38:46.720Z,98.10
2019-04-05T06:41:19.984Z,97.80
2019-04-05T06:43:52.214Z,97.70
2019-04-05T06:46:23.414Z,97.60
2019-04-05T06:48:53.132Z,97.60
2019-04-05T06:51:23.799Z,97.40
2019-04-05T06:53:53.374Z,97.40
2019-04-05T06:56:24.162Z,97.20
2019-04-05T06:58:54.182Z,97.20
2019-04-05T07:01:23.913Z,96.00
2019-04-05T07:11:25.665Z,94.30
2019-04-05T07:13:55.248Z,91.30
2019-04-05T07:16:24.912Z,90.50
2019-04-05T07:18:54.508Z,90.70
2019-04-05T07:21:24.617Z,88.30
2019-04-05T07:23:54.226Z,85.60
2019-04-05T07:26:26.440Z,84.50
2019-04-05T07:28:57.456Z,85.10
2019-04-05T07:31:27.047Z,90.00
2019-04-05T07:33:57.256Z,91.60
2019-04-05T07:36:27.036Z,93.90
2019-04-05T07:38:57.720Z,93.70
2019-04-05T07:41:27.552Z,93.80
2019-04-05T07:43:58.864Z,93.40
2019-04-05T07:46:29.990Z,92.30
2019-04-05T07:49:02.133Z,94.40
2019-04-05T07:51:31.628Z,94.30
2019-04-05T07:54:02.518Z,94.70
2019-04-05T07:56:33.296Z,95.40
2019-04-05T07:59:02.912Z,93.50
2019-04-05T08:01:35.202Z,92.10
2019-04-05T08:04:06.821Z,91.60
2019-04-05T08:06:38.402Z,93.20
2019-04-05T08:09:11.022Z,92.90
2019-04-05T08:11:43.165Z,93.50
2019-04-05T08:14:18.120Z,92.80
2019-04-05T08:16:48.355Z,95.40
2019-04-05T08:19:18.094Z,97.70
2019-04-05T08:21:48.515Z,98.80
2019-04-05T08:24:20.315Z,99.50
2019-04-05T08:26:52.698Z,99.00
2019-04-05T08:29:23.529Z,98.70
2019-04-05T08:31:53.068Z,99.90
2019-04-05T08:34:25.492Z,99.90
2019-04-05T08:36:55.068Z,99.90
2019-04-05T08:39:24.916Z,99.90
2019-04-05T08:41:54.576Z,99.10
2019-04-05T08:44:25.416Z,99.90
2019-04-05T08:46:56.597Z,99.90
2019-04-05T08:49:29.962Z,99.90
2019-04-05T08:51:59.688Z,99.10
2019-04-05T08:54:33.270Z,99.90
2019-04-05T08:57:01.513Z,99.90
2019-04-05T08:59:33.154Z,99.90
2019-04-05T09:02:03.248Z,99.90
2019-04-05T09:04:32.924Z,99.90
2019-04-05T09:07:02.601Z,99.60
2019-04-05T09:09:32.392Z,99.90
2019-04-05T09:12:03.492Z,99.90
2019-04-05T09:14:33.069Z,99.90
2019-04-05T09:17:04.723Z,99.90
2019-04-05T09:19:34.293Z,99.90
2019-04-05T09:22:04.440Z,99.90
2019-04-05T09:24:35.520Z,99.10
2019-04-05T09:27:06.732Z,99.70
2019-04-05T09:29:38.929Z,99.90
2019-04-05T09:32:12.084Z,99.90
2019-04-05T09:34:41.988Z,99.90
2019-04-05T09:37:13.196Z,99.20
2019-04-05T09:39:44.584Z,99.90
2019-04-05T09:42:14.163Z,99.90
2019-04-05T09:44:44.800Z,99.90
2019-04-05T09:47:15.595Z,99.90
2019-04-05T09:49:45.676Z,99.90
2019-04-05T09:52:15.472Z,99.90
2019-04-05T09:54:45.139Z,99.90
2019-04-05T09:57:18.045Z,99.30
2019-04-05T09:59:52.776Z,99.90
2019-04-05T10:02:22.584Z,99.00
2019-04-05T10:04:52.133Z,99.90
2019-04-05T10:07:22.249Z,96.80
2019-04-05T10:09:51.953Z,98.90
2019-04-05T10:12:24.127Z,98.70
2019-04-05T10:14:54.144Z,96.90
2019-04-05T10:17:23.785Z,98.40
2019-04-05T10:19:54.989Z,97.60
2019-04-05T10:22:24.792Z,98.10
2019-04-05T10:24:54.825Z,98.30
2019-04-05T10:27:24.394Z,97.00
2019-04-05T10:29:56.664Z,97.30
2019-04-05T10:32:26.431Z,97.00
2019-04-05T10:34:57.131Z,96.50
2019-04-05T10:37:26.736Z,94.80
2019-04-05T10:39:56.528Z,96.60
2019-04-05T10:42:31.580Z,96.70
2019-04-05T10:45:02.975Z,98.00
2019-04-05T10:47:34.213Z,96.40
2019-04-05T10:50:06.511Z,96.80
2019-04-05T10:52:39.064Z,98.10
2019-04-05T10:55:10.803Z,97.40
2019-04-05T10:57:40.643Z,98.20
2019-04-05T11:00:14.677Z,98.40
2019-04-05T11:02:47.192Z,96.60
2019-04-05T11:05:19.040Z,97.20
2019-04-05T11:07:48.641Z,95.70
2019-04-05T11:10:18.676Z,96.70
2019-04-05T11:12:49.955Z,96.60
2019-04-05T11:15:22.011Z,95.40
2019-04-05T11:17:53.674Z,96.80
2019-04-05T11:20:23.646Z,96.80
2019-04-05T11:22:54.969Z,97.60
2019-04-05T11:25:26.460Z,98.60
2019-04-05T11:27:59.200Z,97.10
2019-04-05T11:30:43.004Z,96.80
2019-04-05T11:33:12.816Z,97.50
2019-04-05T11:35:44.129Z,98.70
2019-04-05T11:38:16.136Z,95.30
2019-04-05T11:40:47.227Z,98.70
2019-04-05T11:43:18.215Z,99.90
2019-04-05T11:45:48.639Z,98.90
2019-04-05T11:48:21.496Z,98.50
2019-04-05T11:50:52.879Z,99.10
2019-04-05T11:53:22.673Z,99.90
2019-04-05T11:55:52.845Z,98.70
2019-04-05T11:58:24.242Z,99.90
2019-04-05T12:00:57.371Z,98.20
2019-04-05T12:03:29.508Z,98.30
2019-04-05T12:06:00.809Z,99.00
2019-04-05T12:08:31.889Z,98.10
2019-04-05T12:11:02.033Z,96.50
2019-04-05T12:13:32.822Z,97.00
2019-04-05T12:16:10.188Z,97.50
2019-04-05T12:18:38.600Z,99.50
2019-04-05T12:21:09.519Z,97.60
2019-04-05T12:23:39.149Z,97.40
2019-04-05T12:26:09.001Z,97.80
2019-04-05T12:28:40.404Z,97.00
2019-04-05T12:31:11.116Z,98.20
2019-04-05T12:33:40.868Z,98.40
2019-04-05T12:36:12.073Z,99.40
2019-04-05T12:38:41.746Z,96.90
2019-04-05T12:41:12.690Z,98.10
2019-04-05T12:43:44.630Z,96.60
2019-04-05T12:46:16.183Z,97.70
2019-04-05T12:48:46.503Z,97.00
2019-04-05T12:51:18.136Z,99.40
2019-04-05T12:53:47.686Z,98.80
2019-04-05T12:56:19.274Z,97.90
2019-04-05T12:58:50.914Z,98.60
2019-04-05T13:01:20.576Z,97.00
2019-04-05T13:03:53.105Z,96.20
2019-04-05T13:06:22.901Z,97.30
2019-04-05T13:08:54.431Z,99.60
2019-04-05T13:11:28.425Z,97.70
2019-04-05T13:13:58.506Z,99.70
2019-04-05T13:16:28.231Z,97.80
2019-04-05T13:19:00.833Z,99.20
2019-04-05T13:21:32.927Z,99.90
2019-04-05T13:24:04.481Z,99.00
2019-04-05T13:26:36.958Z,99.10
2019-04-05T13:29:06.884Z,99.10
2019-04-05T13:31:36.533Z,99.90
2019-04-05T13:34:07.641Z,97.00
2019-04-05T13:36:37.727Z,99.70
2019-04-05T13:39:09.039Z,98.00
2019-04-05T13:41:38.959Z,99.40
2019-04-05T13:44:08.866Z,99.50
2019-04-05T13:46:39.276Z,99.90
2019-04-05T13:49:11.427Z,97.50
2019-04-05T13:51:42.110Z,98.40
2019-04-05T13:54:12.578Z,99.60
2019-04-05T13:56:42.305Z,99.90
2019-04-05T13:59:13.857Z,98.50
2019-04-05T14:01:43.486Z,99.60
2019-04-05T14:04:16.869Z,99.30
2019-04-05T14:06:46.572Z,99.90
2019-04-05T14:09:18.053Z,99.90
2019-04-05T14:11:47.785Z,99.10
2019-04-05T14:14:18.556Z,98.60
2019-04-05T14:16:48.356Z,96.90
2019-04-05T14:19:19.192Z,98.10
2019-04-05T14:21:52.585Z,99.40
2019-04-05T14:24:23.447Z,98.20
2019-04-05T14:26:55.649Z,99.50
2019-04-05T14:29:25.507Z,99.80
2019-04-05T14:31:55.156Z,99.20
2019-04-05T14:34:26.103Z,99.90
2019-04-05T14:36:57.024Z,99.90
2019-04-05T14:39:28.437Z,99.90
2019-04-05T14:42:09.087Z,99.90
2019-04-05T14:44:29.881Z,99.90
2019-04-05T14:46:59.548Z,99.90
2019-04-05T14:49:30.673Z,99.90
2019-04-05T14:52:01.933Z,99.10
2019-04-05T14:54:32.747Z,99.90
2019-04-05T14:57:05.644Z,99.90
2019-04-05T14:59:33.927Z,99.90
2019-04-05T15:02:04.827Z,99.40
2019-04-05T15:04:34.567Z,99.50
2019-04-05T15:07:05.644Z,99.40
2019-04-05T15:09:36.788Z,99.90
2019-04-05T15:12:07.169Z,99.90
2019-04-05T15:14:37.380Z,99.90
2019-04-05T15:17:08.049Z,99.90
2019-04-05T15:19:40.201Z,99.90
2019-04-05T15:22:12.865Z,99.90
2019-04-05T15:24:47.096Z,99.90
2019-04-05T15:27:16.767Z,99.90
2019-04-05T15:29:46.322Z,99.90
2019-04-05T15:32:16.198Z,99.90
2019-04-05T15:34:46.004Z,99.90
2019-04-05T15:37:16.235Z,99.90
2019-04-05T15:39:48.438Z,99.90
2019-04-05T15:42:20.820Z,99.90
2019-04-05T15:44:52.254Z,99.90
2019-04-05T15:47:23.953Z,99.90
2019-04-05T15:49:54.069Z,99.90
2019-04-05T15:52:27.911Z,99.90
2019-04-05T15:54:56.084Z,99.90
2019-04-05T15:57:27.441Z,99.90
2019-04-05T15:59:58.032Z,99.90
2019-04-05T16:02:27.728Z,99.90
2019-04-05T16:05:01.470Z,99.90
2019-04-05T16:07:30.841Z,99.90
2019-04-05T16:10:01.914Z,99.90
2019-04-05T16:12:33.228Z,99.90
2019-04-05T16:15:02.991Z,99.90
2019-04-05T16:17:34.243Z,99.90
2019-04-05T16:20:05.781Z,99.90
2019-04-05T16:22:37.752Z,99.90
2019-04-05T16:25:10.297Z,99.90
2019-04-05T16:27:41.459Z,99.90
2019-04-05T16:30:11.371Z,99.90
2019-04-05T16:32:41.439Z,99.90
2019-04-05T16:35:14.634Z,99.90
2019-04-05T16:37:44.621Z,99.90
2019-04-05T16:40:15.945Z,99.90
2019-04-05T16:42:45.544Z,99.90
2019-04-05T16:45:18.003Z,99.90
2019-04-05T16:47:47.648Z,99.90
2019-04-05T16:50:17.824Z,99.90
2019-04-05T16:52:49.025Z,99.90
2019-04-05T16:55:21.425Z,99.90
2019-04-05T16:57:51.093Z,99.90
2019-04-05T17:00:21.792Z,99.90
2019-04-05T17:02:51.392Z,99.90
2019-04-05T17:05:24.072Z,99.90
2019-04-05T17:07:54.233Z,99.90
2019-04-05T17:10:23.812Z,99.90
2019-04-05T17:12:53.423Z,99.90
2019-04-05T17:15:23.312Z,99.90
2019-04-05T17:17:52.964Z,99.90
2019-04-05T17:20:22.746Z,99.90
2019-04-05T17:22:58.246Z,99.90
2019-04-05T17:25:23.931Z,99.90
2019-04-05T17:27:54.694Z,99.90
2019-04-05T17:30:24.272Z,99.90
2019-04-05T17:32:55.721Z,99.90
2019-04-05T17:35:27.292Z,99.90
2019-04-05T17:37:56.917Z,99.90
2019-04-05T17:40:27.540Z,99.90
2019-04-05T17:42:57.136Z,99.90
2019-04-05T17:45:30.097Z,99.90
2019-04-05T17:48:00.903Z,99.90
2019-04-05T17:50:33.667Z,99.90
2019-04-05T17:53:12.513Z,99.90
2019-04-05T17:55:36.465Z,99.90
2019-04-05T17:58:07.473Z,99.90
2019-04-05T18:00:37.772Z,99.90
2019-04-05T18:03:07.504Z,99.90
2019-04-05T18:05:37.188Z,99.90
2019-04-05T18:08:06.928Z,99.90
2019-04-05T18:10:36.477Z,99.90
2019-04-05T18:13:06.289Z,99.90
2019-04-05T18:15:36.020Z,99.90
2019-04-05T18:18:09.245Z,99.90
2019-04-05T18:20:40.132Z,99.90
2019-04-05T18:23:09.891Z,99.90
2019-04-05T18:25:39.781Z,99.90
2019-04-05T18:28:11.231Z,99.90
2019-04-05T18:30:40.772Z,99.90
2019-04-05T18:33:10.678Z,99.90
2019-04-05T18:35:40.765Z,99.90
2019-04-05T18:38:10.753Z,99.90
2019-04-05T18:40:41.512Z,99.90
2019-04-05T18:43:13.247Z,99.90
2019-04-05T18:45:42.789Z,99.90
2019-04-05T18:48:13.740Z,99.90
2019-04-05T18:50:48.390Z,99.90
2019-04-05T18:53:17.377Z,99.90
2019-04-05T18:55:49.704Z,99.90
2019-04-05T18:58:22.618Z,99.90
2019-04-05T19:00:52.293Z,99.90
2019-04-05T19:03:24.573Z,99.90
2019-04-05T19:05:55.242Z,99.90
2019-04-05T19:08:24.944Z,99.90
2019-04-05T19:10:55.617Z,99.90
2019-04-05T19:13:27.043Z,99.90
2019-04-05T19:15:56.764Z,99.90
2019-04-05T19:18:26.657Z,99.90
2019-04-05T19:20:57.065Z,99.90
2019-04-05T19:23:29.235Z,99.90
2019-04-05T19:25:58.782Z,99.90
2019-04-05T19:28:29.380Z,99.90
2019-04-05T19:48:41.385Z,99.90
2019-04-05T19:51:11.417Z,99.90
2019-04-05T19:53:41.669Z,99.90
2019-04-05T19:56:12.756Z,99.90
2019-04-05T19:58:44.112Z,99.90
2019-04-05T20:01:15.120Z,99.90
2019-04-05T20:03:46.125Z,99.90
2019-04-05T20:06:16.214Z,99.90
2019-04-05T20:08:47.697Z,99.90
2019-04-05T20:11:18.506Z,99.90
2019-04-05T20:13:49.728Z,99.90
2019-04-05T20:16:19.491Z,99.90
2019-04-05T20:18:49.248Z,99.90
2019-04-05T20:21:18.964Z,99.90
2019-04-05T20:23:49.075Z,99.90
2019-04-05T20:26:19.093Z,99.90
2019-04-05T20:28:49.804Z,99.90
2019-04-05T20:31:22.626Z,99.90
2019-04-05T20:33:54.188Z,99.90
2019-04-05T20:36:25.718Z,99.90
2019-04-05T20:38:57.245Z,99.90
2019-04-05T20:41:26.851Z,99.90
2019-04-05T20:43:57.530Z,99.90
2019-04-05T20:46:28.584Z,99.90
2019-04-05T20:48:58.156Z,99.90
2019-04-05T20:51:29.722Z,99.90
2019-04-05T20:53:59.446Z,99.90
2019-04-05T20:56:29.143Z,99.90
2019-04-05T20:59:00.565Z,99.90
2019-04-05T21:01:30.376Z,99.90
2019-04-05T21:04:00.034Z,99.90
2019-04-05T21:06:29.868Z,99.90
2019-04-05T21:09:01.361Z,99.90
2019-04-05T21:11:32.192Z,99.90
2019-04-05T21:14:04.492Z,99.90
2019-04-05T21:16:34.071Z,99.90
2019-04-05T21:19:05.073Z,99.90
2019-04-05T21:21:34.876Z,99.90
2019-04-05T21:24:05.984Z,99.90
2019-04-05T21:26:36.897Z,99.90
2019-04-05T21:29:09.560Z,99.90
2019-04-05T21:31:41.215Z,99.90
2019-04-05T21:34:11.004Z,99.90
2019-04-05T21:36:41.731Z,99.90
2019-04-05T21:39:12.392Z,99.90
2019-04-05T21:41:42.241Z,99.90
2019-04-05T21:44:12.098Z,99.90
2019-04-05T21:46:42.157Z,99.90
2019-04-05T21:49:11.713Z,99.90
2019-04-05T21:51:44.482Z,99.90
2019-04-05T21:54:15.145Z,99.90
2019-04-05T21:56:46.144Z,99.90
2019-04-05T21:59:16.116Z,99.90
2019-04-05T22:01:46.899Z,99.90
2019-04-05T22:04:16.588Z,99.90
2019-04-05T22:06:46.303Z,99.90
2019-04-05T22:09:19.133Z,99.90
2019-04-05T22:11:49.169Z,99.90
2019-04-05T22:14:20.600Z,99.90
2019-04-05T22:16:51.317Z,99.90
2019-04-05T22:19:22.218Z,99.90
2019-04-05T22:21:55.532Z,99.90
2019-04-05T22:24:26.922Z,99.90
2019-04-05T22:26:57.668Z,99.90
2019-04-05T22:29:30.416Z,99.90
2019-04-05T22:32:01.811Z,99.90
2019-04-05T22:34:31.720Z,99.90
2019-04-05T22:37:03.328Z,99.90
2019-04-05T22:39:32.948Z,99.90
2019-04-05T22:42:02.683Z,99.90
2019-04-05T22:44:39.881Z,99.90
2019-04-05T22:47:05.996Z,99.90
2019-04-05T22:49:37.312Z,99.90
2019-04-05T22:52:09.355Z,99.90
2019-04-05T22:54:39.084Z,99.90
2019-04-05T22:57:08.832Z,99.90
2019-04-05T22:59:40.767Z,99.90
2019-04-05T23:02:11.144Z,99.90
2019-04-05T23:04:42.230Z,99.90
2019-04-05T23:07:11.879Z,99.90
2019-04-05T23:09:41.973Z,99.90
2019-04-05T23:12:14.070Z,99.90
2019-04-05T23:14:43.652Z,99.90
2019-04-05T23:17:17.440Z,99.90
2019-04-05T23:19:47.855Z,99.90
2019-04-05T23:22:20.640Z,99.90
2019-04-05T23:24:52.012Z,99.90
2019-04-05T23:27:24.872Z,99.90
2019-04-05T23:29:56.388Z,99.90
2019-04-05T23:32:26.256Z,99.90
2019-04-05T23:34:57.480Z,99.90
2019-04-05T23:37:27.079Z,99.90
2019-04-05T23:39:58.824Z,99.90
2019-04-05T23:42:28.465Z,99.90
2019-04-05T23:44:58.067Z,99.90
2019-04-05T23:47:27.704Z,99.90
2019-04-05T23:49:57.377Z,99.90
2019-04-05T23:52:28.111Z,99.90
2019-04-05T23:54:57.913Z,99.90
2019-04-05T23:57:29.341Z,99.90
2019-04-05T23:59:59.947Z,99.90
